Airfield :
LOGIN :

Register | Disclaimer

   EN    FR    IT 

 










Legend :    VFR   Marginal VFR   IFR   Intensive IFR   Very Intensive IFR
Visi :
Ceiling :
>= 8 km
>= 3000ft
5 to 8 km
1000 to 3000 ft
1500m to 5 km
500 to 1000 ft
800 to 1500m
200 to 500 ft
< 800m
< 200 ft
Symbols :   Thunderstorms  Fog  Heavy snow  Heavy precipitations  Wind > 20 kt
SIGMETs :     Misc.  Thunderstorms  Icing  Turbulence  Mountain Waves  Volcanic Ashes






- Airport Elevation : 1504 ft
- IATA code : PNA


LEPP - Noain Pamplona

CURRENT METAR :
  • 100430Z 31005KT 9999 SCT020 06/06 Q1029

EXPIRED METARs :
  • 100400Z AUTO 29005KT 9999 FEW025 SCT038 06/06 Q1030
  • 100330Z AUTO 31007KT 280V340 9999 BKN028 BKN036 07/06 Q1030
  • 100300Z AUTO 31007KT 280V340 9000 -RA FEW025 BKN030 07/07 Q1030
  • 100230Z AUTO 30006KT 9000 SCT025 BKN034 OVC041 07/06 Q1030
  • 100200Z AUTO 30006KT 9999 FEW021 OVC033 07/06 Q1030

TAF TAF LEPP
Valid from the 10 at 03:00 until the 11 at 03:00 UTC


100200Z 1003/1103 VRB05KT 9999 SCT035 TX12/1014Z TN04/1007Z
PROB40
TEMPO 1003/1008 1500 BCFG
PROB30
TEMPO 1003/1008 0800 FG VV001



MET'MAP, your aeronautical weather chart ! - Copyright ORBIFLY December 2007 - Disclaimer

ORBIFLY MET'MAP TEAM :

Programming & Development : Alexandra Zaïnal
Concept & original design : Baudouin d'Aumeries
Assistance for programming : Marc-Olivier Méhu
Technical & hardware support : Manuel Goepfert

Contact : metmap@orbifly.com




SOURCES & CREDITS :

   NOAA